Weather History for Altus, OK

Change the Weather History Date:

Monday, December 24, 2012

  Actual Average (KLTS) Record (KLTS)
Temperature  
Mean Temperature 34 °F -  
Max Temperature 42 °F 49 °F 53 °F (2007)
Min Temperature 26 °F 25 °F 15 °F (1996)
Degree Days  
Heating Degree Days 31    
Moisture  
Dew Point 22 °F    
Average Humidity 59    
Maximum Humidity 80    
Minimum Humidity 42    
Precipitation  
Precipitation 0.00 in - - ()
Sea Level Pressure  
Sea Level Pressure 29.96 in    
Wind  
Wind Speed 7 mph (NE)    
Max Wind Speed 14 mph    
Max Gust Speed 16 mph    
Visibility 10 miles    
Events      
Averages and records for this station are not official NWS values.
T = Trace of Precipitation, MM = Missing Value Source: NWS Daily Summary

Daily Weather History Graph

Daily Weather History Graph

Search for Another Location

Airport:

Trip Planner

Search our weather history database for the weather conditions in past years. The results will help you decide how hot, cold, wet, or windy it might be!

Date:

Astronomy

Dec. 24, 2012 Rise Set
Actual Time 7:42 AM CST 5:32 PM CST
Civil Twilight 7:14 AM CST 6:00 PM CST
Nautical Twilight 6:42 AM CST 6:31 PM CST
Astronomical Twilight 6:11 AM CST 7:02 PM CST
Moon 2:58 PM CST (12/24) 4:25 AM CST (12/24)
Length of Visible Light 10h 46m
Length of Day
9h 50m
Waxing Gibbous, 88% of the Moon is Illuminated
Dec 24
Waxing Gibbous
Dec 28
Full
Jan 4
Last Quarter
Jan 11
New
Jan 18
First Quarter

Hourly Weather History & Observations

Time (CST) Temp. Windchill Dew Point Humidity Pressure Visibility Wind Dir Wind Speed Gust Speed Precip Events Conditions
12:15 AM 32.0 °F 26.4 °F 23.0 °F 69% 30.02 in 10.0 mi WNW 5.8 mph - N/A   Clear
12:35 AM 32.0 °F 27.5 °F 23.0 °F 69% 30.03 in 10.0 mi NW 4.6 mph - N/A   Clear
12:55 AM 28.4 °F 24.6 °F 21.2 °F 74% 30.02 in 10.0 mi NW 3.5 mph - N/A   Clear
1:15 AM 30.2 °F 24.3 °F 21.2 °F 69% 30.03 in 10.0 mi North 5.8 mph - N/A   Clear
1:35 AM 30.2 °F 21.9 °F 23.0 °F 75% 30.03 in 10.0 mi North 9.2 mph - N/A   Clear
1:55 AM 30.2 °F 22.6 °F 23.0 °F 75% 30.02 in 10.0 mi NNE 8.1 mph - N/A   Clear
2:15 AM 30.2 °F 21.9 °F 23.0 °F 75% 30.01 in 10.0 mi North 9.2 mph - N/A   Clear
2:35 AM 30.2 °F 21.9 °F 23.0 °F 75% 30.02 in 10.0 mi North 9.2 mph - N/A   Clear
2:55 AM 30.2 °F 21.9 °F 23.0 °F 75% 30.02 in 10.0 mi North 9.2 mph - N/A   Clear
3:15 AM 32.0 °F 23.0 °F 23.0 °F 69% 30.01 in 10.0 mi North 11.5 mph - N/A   Clear
3:55 AM 32.0 °F 27.5 °F 23.0 °F 69% 30.04 in 10.0 mi NNW 4.6 mph - N/A   Clear
4:15 AM 32.0 °F 24.8 °F 23.0 °F 69% 30.04 in 10.0 mi NNW 8.1 mph - N/A   Clear
4:35 AM 30.2 °F 21.9 °F 23.0 °F 75% 30.04 in 10.0 mi North 9.2 mph - N/A   Clear
4:55 AM 30.2 °F 22.6 °F 23.0 °F 75% 30.05 in 10.0 mi NNW 8.1 mph - N/A   Clear
5:15 AM 30.2 °F 23.4 °F 23.0 °F 75% 30.04 in 10.0 mi North 6.9 mph - N/A   Clear
5:35 AM 30.2 °F 23.4 °F 23.0 °F 75% 30.03 in 10.0 mi North 6.9 mph - N/A   Clear
5:55 AM 30.2 °F 23.4 °F 23.0 °F 75% 30.01 in 10.0 mi North 6.9 mph - N/A   Clear
6:15 AM 30.2 °F 25.4 °F 23.0 °F 75% 30.03 in 10.0 mi NW 4.6 mph - N/A   Clear
6:35 AM 28.4 °F 22.2 °F 21.2 °F 74% 30.05 in 10.0 mi West 5.8 mph - N/A   Clear
6:55 AM 28.4 °F 23.3 °F 21.2 °F 74% 30.05 in 10.0 mi WNW 4.6 mph - N/A   Clear
7:15 AM 28.4 °F 23.3 °F 21.2 °F 74% 30.05 in 10.0 mi WNW 4.6 mph - N/A   Clear
7:55 AM 26.6 °F 21.2 °F 21.2 °F 80% 30.06 in 10.0 mi WNW 4.6 mph - N/A   Clear
8:15 AM 28.4 °F 23.3 °F 23.0 °F 80% 30.04 in 10.0 mi North 4.6 mph - N/A   Clear
8:35 AM 28.4 °F 24.6 °F 23.0 °F 80% 30.04 in 10.0 mi NNE 3.5 mph - N/A   Clear
8:55 AM 32.0 °F 25.6 °F 26.6 °F 80% 30.04 in 10.0 mi NNE 6.9 mph - N/A   Clear
9:15 AM 33.8 °F 27.0 °F 24.8 °F 70% 30.05 in 10.0 mi NE 8.1 mph - N/A   Clear
9:35 AM 33.8 °F 24.8 °F 23.0 °F 65% 30.04 in 10.0 mi ENE 12.7 mph - N/A   Clear
9:55 AM 33.8 °F 25.3 °F 23.0 °F 65% 30.04 in 10.0 mi ENE 11.5 mph - N/A   Clear
10:15 AM 33.8 °F 25.8 °F 23.0 °F 65% 30.06 in 10.0 mi NE 10.4 mph - N/A   Clear
10:35 AM 35.6 °F 29.9 °F 21.2 °F 56% 30.06 in 10.0 mi North 6.9 mph - N/A   Clear
10:55 AM 35.6 °F 28.6 °F 23.0 °F 60% 30.05 in 10.0 mi NNE 9.2 mph - N/A   Clear
11:15 AM 35.6 °F 28.6 °F 21.2 °F 56% 30.03 in 10.0 mi ENE 9.2 mph - N/A   Clear
11:35 AM 37.4 °F 34.9 °F 21.2 °F 52% 30.02 in 10.0 mi ENE 3.5 mph - N/A   Clear
11:55 AM 37.4 °F 33.8 °F 21.2 °F 52% 30.02 in 10.0 mi ENE 4.6 mph - N/A   Clear
12:15 PM 37.4 °F 34.9 °F 21.2 °F 52% 30.02 in 10.0 mi NE 3.5 mph - N/A   Clear
12:35 PM 41.0 °F - 21.2 °F 45% 30.00 in 10.0 mi Calm Calm - N/A   Clear
12:55 PM 41.0 °F 39.0 °F 21.2 °F 45% 29.99 in 10.0 mi East 3.5 mph - N/A   Clear
1:15 PM 41.0 °F - 21.2 °F 45% 29.98 in 10.0 mi Calm Calm - N/A   Clear
1:35 PM 41.0 °F - 21.2 °F 45% 29.97 in 10.0 mi Calm Calm - N/A   Clear
1:55 PM 42.8 °F - 21.2 °F 42% 29.96 in 10.0 mi Calm Calm - N/A   Clear
2:15 PM 42.8 °F - 21.2 °F 42% 29.95 in 10.0 mi Calm Calm - N/A   Clear
2:35 PM 42.8 °F 41.1 °F 21.2 °F 42% 29.94 in 10.0 mi East 3.5 mph - N/A   Clear
2:55 PM 42.8 °F 41.1 °F 21.2 °F 42% 29.93 in 10.0 mi ENE 3.5 mph - N/A   Clear
3:15 PM 42.8 °F 41.1 °F 21.2 °F 42% 29.92 in 10.0 mi East 3.5 mph - N/A   Clear
3:35 PM 42.8 °F 38.6 °F 21.2 °F 42% 29.91 in 10.0 mi East 6.9 mph - N/A   Clear
3:55 PM 42.8 °F 38.0 °F 21.2 °F 42% 29.89 in 10.0 mi East 8.1 mph - N/A   Clear
4:15 PM 42.8 °F 37.5 °F 21.2 °F 42% 29.89 in 10.0 mi East 9.2 mph - N/A   Clear
4:35 PM 42.8 °F 37.0 °F 21.2 °F 42% 29.88 in 10.0 mi East 10.4 mph - N/A   Clear
4:55 PM 42.8 °F 37.0 °F 21.2 °F 42% 29.88 in 10.0 mi ENE 10.4 mph - N/A   Clear
5:15 PM 41.0 °F 34.3 °F 21.2 °F 45% 29.86 in 10.0 mi ENE 11.5 mph - N/A   Clear
5:35 PM 41.0 °F 36.4 °F 21.2 °F 45% 29.87 in 10.0 mi East 6.9 mph - N/A   Clear
5:55 PM 39.2 °F 33.6 °F 21.2 °F 49% 29.86 in 10.0 mi East 8.1 mph - N/A   Clear
6:15 PM 39.2 °F 32.5 °F 21.2 °F 49% 29.85 in 10.0 mi ENE 10.4 mph - N/A   Clear
6:35 PM 39.2 °F 33.0 °F 21.2 °F 49% 29.85 in 10.0 mi ENE 9.2 mph - N/A   Clear
6:55 PM 37.4 °F 30.8 °F 21.2 °F 52% 29.86 in 10.0 mi ENE 9.2 mph - N/A   Clear
7:15 PM 37.4 °F 30.8 °F 21.2 °F 52% 29.86 in 10.0 mi ENE 9.2 mph - N/A   Clear
7:35 PM 37.4 °F 30.8 °F 21.2 °F 52% 29.87 in 10.0 mi ENE 9.2 mph - N/A   Clear
7:55 PM 37.4 °F 29.8 °F 21.2 °F 52% 29.86 in 10.0 mi ENE 11.5 mph - N/A   Clear
8:15 PM 37.4 °F 31.4 °F 21.2 °F 52% 29.87 in 10.0 mi ENE 8.1 mph - N/A   Clear
8:35 PM 35.6 °F 29.2 °F 21.2 °F 56% 29.87 in 10.0 mi ENE 8.1 mph - N/A   Clear
8:55 PM 35.6 °F 28.6 °F 21.2 °F 56% 29.87 in 10.0 mi ENE 9.2 mph - N/A   Clear
9:15 PM 35.6 °F 28.0 °F 21.2 °F 56% 29.88 in 10.0 mi NE 10.4 mph - N/A   Clear
9:35 PM 35.6 °F 27.5 °F 21.2 °F 56% 29.88 in 10.0 mi ENE 11.5 mph - N/A   Clear
9:55 PM 35.6 °F 27.5 °F 21.2 °F 56% 29.87 in 10.0 mi NE 11.5 mph - N/A   Clear
10:15 PM 35.6 °F 27.1 °F 21.2 °F 56% 29.85 in 10.0 mi ENE 12.7 mph - N/A   Clear
10:35 PM 35.6 °F 28.0 °F 21.2 °F 56% 29.87 in 10.0 mi NNE 10.4 mph - N/A   Clear
10:55 PM 35.6 °F 26.6 °F 21.2 °F 56% 29.85 in 10.0 mi NE 13.8 mph - N/A   Clear
11:15 PM 35.6 °F 27.5 °F 21.2 °F 56% 29.86 in 10.0 mi ENE 11.5 mph 16.1 mph N/A   Clear
11:35 PM 35.6 °F 28.6 °F 21.2 °F 56% 29.87 in 10.0 mi ENE 9.2 mph - N/A   Clear
11:55 PM 35.6 °F 27.5 °F 21.2 °F 56% 29.84 in 10.0 mi ENE 11.5 mph - N/A   Clear